Curtis Field
KBBD : rendu visible

Aérodrome :











RETROUVEZ-NOUS SUR...

 
LOGIN :

S'inscrire | Disclaimer

   EN    FR    IT 

 









Légende :    VFR   VFR Marginal   IFR   IFR Intensif   IFR Très Intensif
Visi : 
Plafond : 
>= 8 km
>= 3000ft
5 à 8 km
1000 à 3000 ft
1500m à 5 km
500 à 1000 ft
800 à 1500m
200 à 500 ft
< 800m
< 200 ft
Symboles :   Orages  Brouillard  Fortes neiges  Fortes précipitations  Vent > 20 kt






- Altitude de l'aérodrome : 1827 ft


KBBD - Curtis Field

DERNIER METAR :
  • 271755Z AUTO 25010KT 230V290 10SM CLR 12/M13 A3034 RMK AO2

METARs EXPIRÉS :
  • 271735Z AUTO 25010KT 200V270 10SM CLR 12/M10 A3035 RMK AO2
  • 271715Z AUTO 24009G16KT 10SM CLR 11/M10 A3036 RMK AO2
  • 271655Z AUTO 26009G16KT 10SM CLR 10/M09 A3037 RMK AO2
  • 271635Z AUTO 23011KT 10SM CLR 10/M09 A3036 RMK AO2
  • 271615Z AUTO 22011KT 10SM CLR 09/M09 A3037 RMK AO2
  • 271555Z AUTO 23010KT 10SM CLR 08/M09 A3037 RMK AO2
  • 271535Z AUTO 22008KT 10SM CLR 07/M07 A3037 RMK AO2
  • 271515Z AUTO 21008KT 10SM CLR 05/M06 A3037 RMK AO2

TAF KBBD
Valide du 27 à 18h jusqu'au 28 à 18h UTC


271736Z 2718/2818 23011G18KT P6SM SKC
FM280000 22005KT P6SM SKC
FM281000 VRB04KT P6SM SKC



MET'MAP, la Météo Aéronautique d'un coup d'oeil ! - Copyright ORBIFLY Décembre 2007 - Disclaimer

ORBIFLY MET'MAP TEAM :

Programmation & Développement : Alexandra Zaïnal
Sur une idée originale de : Baudouin d'Aumeries
Assistance à la programmation : Marc-Olivier Méhu
Soutien technique & logistique : Manuel Goepfert

Contact : metmap@orbifly.com




SOURCES & CREDITS :

   NOAA       Earth
Advisory